createdAt,value
2022-11-21T00:09:06.440Z,19.43
2022-11-21T00:24:10.436Z,26.97
2022-11-21T00:39:12.448Z,30.73
2022-11-21T00:54:14.314Z,17.33
2022-11-21T01:09:16.096Z,23.60
2022-11-21T01:24:17.855Z,14.13
2022-11-21T01:39:19.795Z,17.83
2022-11-21T01:54:30.200Z,14.83
2022-11-21T02:09:34.684Z,14.77
2022-11-21T02:25:12.730Z,22.83
2022-11-21T02:40:22.261Z,25.13
2022-11-21T02:55:25.504Z,18.97
2022-11-21T03:10:27.645Z,20.83
2022-11-21T03:25:29.554Z,21.47
2022-11-21T03:40:31.474Z,13.73
2022-11-21T03:55:33.289Z,17.17
2022-11-21T04:10:35.208Z,11.67
2022-11-21T04:25:37.130Z,20.10
2022-11-21T04:40:39.354Z,19.97
2022-11-21T04:55:41.185Z,24.17
2022-11-21T05:11:02.062Z,18.60
2022-11-21T05:26:03.854Z,19.83
2022-11-21T05:41:05.877Z,19.07
2022-11-21T05:56:10.643Z,15.60
2022-11-21T06:11:14.951Z,15.73
2022-11-21T06:26:19.541Z,18.07
2022-11-21T06:41:24.092Z,30.47
2022-11-21T06:56:28.746Z,23.53
2022-11-21T07:11:31.402Z,27.43
2022-11-21T07:26:33.295Z,37.17
2022-11-21T07:41:35.212Z,29.50
2022-11-21T07:56:37.013Z,27.50
2022-11-21T08:11:38.850Z,46.07
2022-11-21T08:26:44.959Z,27.50
2022-11-21T08:42:05.692Z,25.37
2022-11-21T08:57:07.515Z,25.97
2022-11-21T09:12:09.635Z,22.53
2022-11-21T09:27:11.474Z,22.23
2022-11-21T09:42:40.027Z,24.40
2022-11-21T09:57:42.311Z,16.30
2022-11-21T10:13:06.062Z,23.30
2022-11-21T10:28:20.746Z,23.63
2022-11-21T10:44:08.002Z,17.60
2022-11-21T10:59:28.665Z,20.57
2022-11-21T11:14:33.389Z,18.87
2022-11-21T11:29:50.410Z,15.70
2022-11-21T11:45:28.353Z,20.53
2022-11-21T12:00:35.569Z,29.37
2022-11-21T12:15:49.649Z,34.83
2022-11-21T12:31:03.358Z,19.97
2022-11-21T12:46:38.521Z,26.57
2022-11-21T13:17:46.528Z,21.27
2022-11-21T13:32:54.721Z,24.50
2022-11-21T13:48:11.263Z,23.13
2022-11-21T14:03:31.886Z,21.57
2022-11-21T14:18:35.789Z,25.80
2022-11-21T14:33:42.175Z,23.80
2022-11-21T14:48:44.344Z,28.30
2022-11-21T15:03:57.232Z,24.10
2022-11-21T15:18:59.436Z,22.37
2022-11-21T15:34:34.280Z,32.07
2022-11-21T15:49:35.382Z,21.30
2022-11-21T16:04:37.224Z,16.30
2022-11-21T16:19:39.051Z,18.07
2022-11-21T16:34:40.894Z,10.43
2022-11-21T16:49:48.489Z,11.27
2022-11-21T17:04:50.623Z,16.43
2022-11-21T17:19:54.693Z,14.00
2022-11-21T17:34:56.567Z,16.10
2022-11-21T17:50:04.105Z,14.20
2022-11-21T18:05:07.674Z,13.87
2022-11-21T18:20:09.991Z,11.03
2022-11-21T18:35:11.831Z,12.80
2022-11-21T18:50:13.894Z,10.83
2022-11-21T19:05:20.388Z,8.20
2022-11-21T19:20:22.500Z,14.57
2022-11-21T19:35:24.768Z,11.67
2022-11-21T19:50:27.214Z,12.67
2022-11-21T20:05:29.374Z,11.10
2022-11-21T20:20:31.606Z,11.80
2022-11-21T20:35:33.423Z,16.60
2022-11-21T20:51:25.103Z,14.00
2022-11-21T21:06:06.925Z,15.60
2022-11-21T21:21:17.374Z,10.60
2022-11-21T21:36:24.417Z,10.70
2022-11-21T21:51:29.988Z,17.37
2022-11-21T22:06:35.313Z,17.27
2022-11-21T22:36:40.156Z,18.60
2022-11-21T22:51:42.123Z,14.60
2022-11-21T23:06:44.121Z,8.67
2022-11-21T23:21:46.103Z,16.30
2022-11-21T23:36:48.021Z,18.40
2022-11-21T23:51:50.195Z,11.90
